FW0934 Weather Reports


time (UTC)temp
C
wind
direction
speed
KPH
gust
KPH
rain 1hr
cm
rain 24hr
cm
rain mn
cm
humidity
%
barometer
mb
20200229070132 0 209 3.2 4.8 0.00 0.00 0.00 55 1033.8
20200229060200 0 35 0.0 3.2 0.00 0.00 0.00 51 1034.8
20200229050148 2 246 11.3 14.5 0.00 0.00 0.00 48 1034.6
20200229040130 3 202 6.4 8.0 0.00 0.00 0.00 44 1034.2
20200229030218 5 223 8.0 17.7 0.00 0.00 0.00 38 1034.3
20200229020203 7 238 19.3 27.4 0.00 0.00 0.00 33 1032.8
20200229010123 11 258 16.1 22.5 0.00 0.00 0.00 25 1032.2
20200229000212 15 51 25.7 33.8 0.00 0.00 0.00 20 1031.2
20200228230116 17 32 27.4 33.8 0.00 0.00 0.00 16 1030.6
20200228220114 19 25 27.4 32.2 0.00 0.00 0.00 16 1029.9
20200228210131 19 150 6.4 19.3 0.00 0.00 0.00 20 1030.3
20200228200115 18 312 8.0 22.5 0.00 0.00 0.00 22 1031.5
20200228190254 17 265 11.3 19.3 0.00 0.00 0.00 27 1032.9
20200228180147 15 313 9.7 24.1 0.00 0.00 0.00 26 1034.2
20200228170108 14 224 6.4 17.7 0.00 0.00 0.00 31 1035.6
20200228160156 7 60 4.8 9.7 0.00 0.00 0.00 42 1036.3
20200228150248 5 223 0.0 4.8 0.00 0.00 0.00 47 1035.8
20200228140155 -3 223 3.2 6.4 0.00 0.00 0.00 74 1034.5
20200228130227 -8 232 6.4 8.0 0.00 0.00 0.00 79 1032.7
20200228120153 -6 27 1.6 4.8 0.00 0.00 0.00 73 1031.8
20200228110137 -6 231 4.8 8.0 0.00 0.00 0.00 77 1031.5
20200228100132 -6 220 0.0 3.2 0.00 0.00 0.00 76 1031.0
20200228090255 -6 233 6.4 8.0 0.00 0.00 0.00 77 1030.7
20200228080139 -3 337 0.0 4.8 0.00 0.00 0.00 65 1030.8